sensor_id;sensor_type;location;lat;lon;timestamp;P1;durP1;ratioP1;P2;durP2;ratioP2
67747;SDS011;54543;50.712;6.070;2023-05-07T00:01:49;2.88;;;2.00;;
67747;SDS011;54543;50.712;6.070;2023-05-07T00:04:15;3.28;;;1.88;;
67747;SDS011;54543;50.712;6.070;2023-05-07T00:06:40;2.45;;;1.90;;
67747;SDS011;54543;50.712;6.070;2023-05-07T00:09:06;2.50;;;1.85;;
67747;SDS011;54543;50.712;6.070;2023-05-07T00:11:32;2.45;;;1.75;;
67747;SDS011;54543;50.712;6.070;2023-05-07T00:13:58;2.70;;;1.90;;
67747;SDS011;54543;50.712;6.070;2023-05-07T00:16:24;2.80;;;2.10;;
67747;SDS011;54543;50.712;6.070;2023-05-07T00:18:50;4.40;;;2.10;;
67747;SDS011;54543;50.712;6.070;2023-05-07T00:21:16;3.20;;;2.20;;
67747;SDS011;54543;50.712;6.070;2023-05-07T00:23:41;3.40;;;2.10;;
67747;SDS011;54543;50.712;6.070;2023-05-07T00:26:07;2.40;;;1.92;;
67747;SDS011;54543;50.712;6.070;2023-05-07T00:28:33;2.67;;;2.05;;
67747;SDS011;54543;50.712;6.070;2023-05-07T00:30:58;2.50;;;2.05;;
67747;SDS011;54543;50.712;6.070;2023-05-07T00:33:24;4.00;;;2.13;;
67747;SDS011;54543;50.712;6.070;2023-05-07T00:35:51;3.20;;;2.22;;
67747;SDS011;54543;50.712;6.070;2023-05-07T00:38:17;2.72;;;1.88;;
67747;SDS011;54543;50.712;6.070;2023-05-07T00:40:42;2.42;;;1.55;;
67747;SDS011;54543;50.712;6.070;2023-05-07T00:43:08;3.25;;;1.90;;
67747;SDS011;54543;50.712;6.070;2023-05-07T00:45:34;3.30;;;1.95;;
67747;SDS011;54543;50.712;6.070;2023-05-07T00:48:00;1.58;;;1.48;;
67747;SDS011;54543;50.712;6.070;2023-05-07T00:50:26;2.55;;;1.60;;
67747;SDS011;54543;50.712;6.070;2023-05-07T00:52:53;2.47;;;1.90;;
67747;SDS011;54543;50.712;6.070;2023-05-07T00:55:20;2.55;;;1.60;;
67747;SDS011;54543;50.712;6.070;2023-05-07T00:57:46;1.70;;;1.60;;
67747;SDS011;54543;50.712;6.070;2023-05-07T01:00:12;1.85;;;1.70;;
67747;SDS011;54543;50.712;6.070;2023-05-07T01:02:39;2.28;;;1.75;;
67747;SDS011;54543;50.712;6.070;2023-05-07T01:05:05;2.00;;;1.63;;
67747;SDS011;54543;50.712;6.070;2023-05-07T01:07:31;3.63;;;1.90;;
67747;SDS011;54543;50.712;6.070;2023-05-07T01:09:58;1.98;;;1.60;;
67747;SDS011;54543;50.712;6.070;2023-05-07T01:12:25;2.63;;;1.85;;
67747;SDS011;54543;50.712;6.070;2023-05-07T01:14:53;1.85;;;1.60;;
67747;SDS011;54543;50.712;6.070;2023-05-07T01:17:19;2.20;;;1.70;;
67747;SDS011;54543;50.712;6.070;2023-05-07T01:19:44;2.92;;;1.60;;
67747;SDS011;54543;50.712;6.070;2023-05-07T01:22:11;3.67;;;1.80;;
67747;SDS011;54543;50.712;6.070;2023-05-07T01:24:39;2.42;;;1.85;;
67747;SDS011;54543;50.712;6.070;2023-05-07T01:27:06;2.15;;;1.63;;
67747;SDS011;54543;50.712;6.070;2023-05-07T01:29:32;2.60;;;1.58;;
67747;SDS011;54543;50.712;6.070;2023-05-07T01:31:58;1.92;;;1.67;;
67747;SDS011;54543;50.712;6.070;2023-05-07T01:34:25;1.92;;;1.55;;
67747;SDS011;54543;50.712;6.070;2023-05-07T01:36:56;2.70;;;1.85;;
67747;SDS011;54543;50.712;6.070;2023-05-07T01:39:26;2.30;;;1.70;;
67747;SDS011;54543;50.712;6.070;2023-05-07T01:41:56;1.45;;;1.30;;
67747;SDS011;54543;50.712;6.070;2023-05-07T01:44:22;2.72;;;1.77;;
67747;SDS011;54543;50.712;6.070;2023-05-07T01:46:48;2.25;;;1.60;;
67747;SDS011;54543;50.712;6.070;2023-05-07T01:49:15;1.60;;;1.50;;
67747;SDS011;54543;50.712;6.070;2023-05-07T01:51:41;2.38;;;1.60;;
67747;SDS011;54543;50.712;6.070;2023-05-07T01:54:07;2.03;;;1.70;;
67747;SDS011;54543;50.712;6.070;2023-05-07T01:56:34;1.90;;;1.50;;
67747;SDS011;54543;50.712;6.070;2023-05-07T01:59:00;2.28;;;1.65;;
67747;SDS011;54543;50.712;6.070;2023-05-07T02:01:27;2.10;;;1.73;;
67747;SDS011;54543;50.712;6.070;2023-05-07T02:03:52;2.13;;;1.40;;
67747;SDS011;54543;50.712;6.070;2023-05-07T02:06:19;1.65;;;1.50;;
67747;SDS011;54543;50.712;6.070;2023-05-07T02:08:45;2.35;;;1.80;;
67747;SDS011;54543;50.712;6.070;2023-05-07T02:11:11;2.33;;;1.42;;
67747;SDS011;54543;50.712;6.070;2023-05-07T02:13:36;2.63;;;1.90;;
67747;SDS011;54543;50.712;6.070;2023-05-07T02:16:02;1.85;;;1.60;;
67747;SDS011;54543;50.712;6.070;2023-05-07T02:18:28;2.22;;;1.58;;
67747;SDS011;54543;50.712;6.070;2023-05-07T02:20:54;2.55;;;1.65;;
67747;SDS011;54543;50.712;6.070;2023-05-07T02:23:20;3.58;;;1.60;;
67747;SDS011;54543;50.712;6.070;2023-05-07T02:25:46;2.20;;;1.52;;
67747;SDS011;54543;50.712;6.070;2023-05-07T02:28:11;2.50;;;1.48;;
67747;SDS011;54543;50.712;6.070;2023-05-07T02:30:37;1.67;;;1.42;;
67747;SDS011;54543;50.712;6.070;2023-05-07T02:33:03;2.67;;;1.65;;
67747;SDS011;54543;50.712;6.070;2023-05-07T02:35:29;1.30;;;1.20;;
67747;SDS011;54543;50.712;6.070;2023-05-07T02:37:54;1.95;;;1.38;;
67747;SDS011;54543;50.712;6.070;2023-05-07T02:40:20;1.90;;;1.50;;
67747;SDS011;54543;50.712;6.070;2023-05-07T02:42:46;2.10;;;1.80;;
67747;SDS011;54543;50.712;6.070;2023-05-07T02:45:11;2.50;;;1.60;;
67747;SDS011;54543;50.712;6.070;2023-05-07T02:47:37;2.00;;;1.80;;
67747;SDS011;54543;50.712;6.070;2023-05-07T02:50:03;1.83;;;1.52;;
67747;SDS011;54543;50.712;6.070;2023-05-07T02:52:29;2.30;;;1.70;;
67747;SDS011;54543;50.712;6.070;2023-05-07T02:54:54;3.03;;;2.22;;
67747;SDS011;54543;50.712;6.070;2023-05-07T02:57:20;2.22;;;1.90;;
67747;SDS011;54543;50.712;6.070;2023-05-07T02:59:46;1.90;;;1.50;;
67747;SDS011;54543;50.712;6.070;2023-05-07T03:02:11;2.70;;;1.60;;
67747;SDS011;54543;50.712;6.070;2023-05-07T03:04:39;2.35;;;1.60;;
67747;SDS011;54543;50.712;6.070;2023-05-07T03:07:04;1.73;;;1.50;;
67747;SDS011;54543;50.712;6.070;2023-05-07T03:09:30;2.88;;;1.45;;
67747;SDS011;54543;50.712;6.070;2023-05-07T03:11:56;1.38;;;1.05;;
67747;SDS011;54543;50.712;6.070;2023-05-07T03:14:22;1.77;;;1.33;;
67747;SDS011;54543;50.712;6.070;2023-05-07T03:16:48;1.98;;;1.75;;
67747;SDS011;54543;50.712;6.070;2023-05-07T03:19:15;2.40;;;1.50;;
67747;SDS011;54543;50.712;6.070;2023-05-07T03:21:40;2.75;;;1.38;;
67747;SDS011;54543;50.712;6.070;2023-05-07T03:24:06;1.95;;;1.55;;
67747;SDS011;54543;50.712;6.070;2023-05-07T03:26:32;3.13;;;1.50;;
67747;SDS011;54543;50.712;6.070;2023-05-07T03:28:57;1.95;;;1.50;;
67747;SDS011;54543;50.712;6.070;2023-05-07T03:31:23;1.70;;;1.50;;
67747;SDS011;54543;50.712;6.070;2023-05-07T03:33:52;1.70;;;1.35;;
67747;SDS011;54543;50.712;6.070;2023-05-07T03:36:20;1.20;;;1.10;;
67747;SDS011;54543;50.712;6.070;2023-05-07T03:38:46;1.60;;;1.20;;
67747;SDS011;54543;50.712;6.070;2023-05-07T03:41:12;1.42;;;1.33;;
67747;SDS011;54543;50.712;6.070;2023-05-07T03:43:38;2.30;;;1.77;;
67747;SDS011;54543;50.712;6.070;2023-05-07T03:46:04;2.35;;;1.67;;
67747;SDS011;54543;50.712;6.070;2023-05-07T03:48:30;3.65;;;2.00;;
67747;SDS011;54543;50.712;6.070;2023-05-07T03:50:55;2.33;;;1.83;;
67747;SDS011;54543;50.712;6.070;2023-05-07T03:53:22;2.13;;;1.63;;
67747;SDS011;54543;50.712;6.070;2023-05-07T03:55:48;3.25;;;2.00;;
67747;SDS011;54543;50.712;6.070;2023-05-07T03:58:13;3.10;;;2.00;;
67747;SDS011;54543;50.712;6.070;2023-05-07T04:00:39;2.40;;;1.80;;
67747;SDS011;54543;50.712;6.070;2023-05-07T04:03:05;2.03;;;1.60;;
67747;SDS011;54543;50.712;6.070;2023-05-07T04:05:31;2.88;;;1.77;;
67747;SDS011;54543;50.712;6.070;2023-05-07T04:07:59;1.88;;;1.13;;
67747;SDS011;54543;50.712;6.070;2023-05-07T04:10:25;1.75;;;1.40;;
67747;SDS011;54543;50.712;6.070;2023-05-07T04:12:51;2.30;;;1.40;;
67747;SDS011;54543;50.712;6.070;2023-05-07T04:15:16;3.97;;;1.42;;
67747;SDS011;54543;50.712;6.070;2023-05-07T04:17:42;2.13;;;1.38;;
67747;SDS011;54543;50.712;6.070;2023-05-07T04:20:15;1.55;;;1.30;;
67747;SDS011;54543;50.712;6.070;2023-05-07T04:22:42;2.10;;;1.60;;
67747;SDS011;54543;50.712;6.070;2023-05-07T04:25:08;3.08;;;1.77;;
67747;SDS011;54543;50.712;6.070;2023-05-07T04:27:34;2.95;;;1.65;;
67747;SDS011;54543;50.712;6.070;2023-05-07T04:30:00;2.03;;;1.65;;
67747;SDS011;54543;50.712;6.070;2023-05-07T04:32:27;3.33;;;2.10;;
67747;SDS011;54543;50.712;6.070;2023-05-07T04:34:54;1.38;;;1.20;;
67747;SDS011;54543;50.712;6.070;2023-05-07T04:37:20;1.55;;;1.38;;
67747;SDS011;54543;50.712;6.070;2023-05-07T04:39:46;1.50;;;1.30;;
67747;SDS011;54543;50.712;6.070;2023-05-07T04:42:16;3.33;;;1.50;;
67747;SDS011;54543;50.712;6.070;2023-05-07T04:44:43;1.95;;;1.58;;
67747;SDS011;54543;50.712;6.070;2023-05-07T04:47:09;2.65;;;1.50;;
67747;SDS011;54543;50.712;6.070;2023-05-07T04:49:35;1.30;;;1.20;;
67747;SDS011;54543;50.712;6.070;2023-05-07T04:52:00;1.38;;;1.20;;
67747;SDS011;54543;50.712;6.070;2023-05-07T04:54:26;1.90;;;1.60;;
67747;SDS011;54543;50.712;6.070;2023-05-07T04:56:51;1.98;;;1.35;;
67747;SDS011;54543;50.712;6.070;2023-05-07T04:59:17;2.28;;;1.17;;
67747;SDS011;54543;50.712;6.070;2023-05-07T05:01:43;1.23;;;1.10;;
67747;SDS011;54543;50.712;6.070;2023-05-07T05:04:08;1.02;;;1.00;;
67747;SDS011;54543;50.712;6.070;2023-05-07T05:06:35;1.60;;;1.30;;
67747;SDS011;54543;50.712;6.070;2023-05-07T05:09:00;2.42;;;1.50;;
67747;SDS011;54543;50.712;6.070;2023-05-07T05:11:26;2.10;;;1.42;;
67747;SDS011;54543;50.712;6.070;2023-05-07T05:13:52;1.90;;;1.42;;
67747;SDS011;54543;50.712;6.070;2023-05-07T05:16:17;2.58;;;1.20;;
67747;SDS011;54543;50.712;6.070;2023-05-07T05:18:43;2.00;;;1.20;;
67747;SDS011;54543;50.712;6.070;2023-05-07T05:21:09;2.55;;;1.40;;
67747;SDS011;54543;50.712;6.070;2023-05-07T05:23:34;1.63;;;1.25;;
67747;SDS011;54543;50.712;6.070;2023-05-07T05:26:00;1.73;;;1.30;;
67747;SDS011;54543;50.712;6.070;2023-05-07T05:28:25;2.38;;;1.40;;
67747;SDS011;54543;50.712;6.070;2023-05-07T05:30:52;1.38;;;1.00;;
67747;SDS011;54543;50.712;6.070;2023-05-07T05:33:18;1.77;;;1.27;;
67747;SDS011;54543;50.712;6.070;2023-05-07T05:35:43;2.00;;;1.40;;
67747;SDS011;54543;50.712;6.070;2023-05-07T05:38:10;1.40;;;1.20;;
67747;SDS011;54543;50.712;6.070;2023-05-07T05:40:35;1.52;;;1.27;;
67747;SDS011;54543;50.712;6.070;2023-05-07T05:43:01;1.20;;;1.10;;
67747;SDS011;54543;50.712;6.070;2023-05-07T05:45:26;1.77;;;1.10;;
67747;SDS011;54543;50.712;6.070;2023-05-07T05:47:52;1.77;;;1.20;;
67747;SDS011;54543;50.712;6.070;2023-05-07T05:50:18;1.30;;;1.08;;
67747;SDS011;54543;50.712;6.070;2023-05-07T05:52:43;2.17;;;1.30;;
67747;SDS011;54543;50.712;6.070;2023-05-07T05:55:09;1.20;;;1.10;;
67747;SDS011;54543;50.712;6.070;2023-05-07T05:57:35;1.58;;;1.25;;
67747;SDS011;54543;50.712;6.070;2023-05-07T06:00:01;1.10;;;1.00;;
67747;SDS011;54543;50.712;6.070;2023-05-07T06:02:27;2.28;;;1.20;;
67747;SDS011;54543;50.712;6.070;2023-05-07T06:04:53;1.45;;;1.35;;
67747;SDS011;54543;50.712;6.070;2023-05-07T06:07:19;1.85;;;1.33;;
67747;SDS011;54543;50.712;6.070;2023-05-07T06:09:44;1.65;;;1.40;;
67747;SDS011;54543;50.712;6.070;2023-05-07T06:12:11;3.03;;;1.27;;
67747;SDS011;54543;50.712;6.070;2023-05-07T06:14:36;1.40;;;1.25;;
67747;SDS011;54543;50.712;6.070;2023-05-07T06:17:02;1.30;;;1.20;;
67747;SDS011;54543;50.712;6.070;2023-05-07T06:19:28;1.83;;;1.30;;
67747;SDS011;54543;50.712;6.070;2023-05-07T06:21:54;1.85;;;1.25;;
67747;SDS011;54543;50.712;6.070;2023-05-07T06:24:21;1.27;;;1.08;;
67747;SDS011;54543;50.712;6.070;2023-05-07T06:26:47;1.35;;;1.15;;
67747;SDS011;54543;50.712;6.070;2023-05-07T06:29:13;1.40;;;1.27;;
67747;SDS011;54543;50.712;6.070;2023-05-07T06:31:39;2.03;;;1.65;;
67747;SDS011;54543;50.712;6.070;2023-05-07T06:34:04;1.80;;;1.50;;
67747;SDS011;54543;50.712;6.070;2023-05-07T06:36:30;1.30;;;1.20;;
67747;SDS011;54543;50.712;6.070;2023-05-07T06:38:55;2.72;;;1.50;;
67747;SDS011;54543;50.712;6.070;2023-05-07T06:41:21;2.78;;;1.42;;
67747;SDS011;54543;50.712;6.070;2023-05-07T06:43:47;1.70;;;1.20;;
67747;SDS011;54543;50.712;6.070;2023-05-07T06:46:13;2.08;;;1.50;;
67747;SDS011;54543;50.712;6.070;2023-05-07T06:48:38;1.75;;;1.33;;
67747;SDS011;54543;50.712;6.070;2023-05-07T06:51:04;2.65;;;1.70;;
67747;SDS011;54543;50.712;6.070;2023-05-07T06:53:29;2.03;;;1.50;;
67747;SDS011;54543;50.712;6.070;2023-05-07T06:55:55;3.17;;;1.60;;
67747;SDS011;54543;50.712;6.070;2023-05-07T06:58:21;1.67;;;1.10;;
67747;SDS011;54543;50.712;6.070;2023-05-07T07:00:47;1.63;;;1.30;;
67747;SDS011;54543;50.712;6.070;2023-05-07T07:03:13;1.45;;;1.15;;
67747;SDS011;54543;50.712;6.070;2023-05-07T07:05:40;1.88;;;1.30;;
67747;SDS011;54543;50.712;6.070;2023-05-07T07:08:06;1.27;;;1.13;;
67747;SDS011;54543;50.712;6.070;2023-05-07T07:10:33;1.42;;;1.15;;
67747;SDS011;54543;50.712;6.070;2023-05-07T07:12:58;1.10;;;1.00;;
67747;SDS011;54543;50.712;6.070;2023-05-07T07:15:24;1.52;;;1.10;;
67747;SDS011;54543;50.712;6.070;2023-05-07T07:17:50;3.33;;;1.08;;
67747;SDS011;54543;50.712;6.070;2023-05-07T07:20:16;2.42;;;1.10;;
67747;SDS011;54543;50.712;6.070;2023-05-07T07:22:42;2.67;;;1.20;;
67747;SDS011;54543;50.712;6.070;2023-05-07T07:25:08;1.40;;;1.10;;
67747;SDS011;54543;50.712;6.070;2023-05-07T07:27:34;1.58;;;1.25;;
67747;SDS011;54543;50.712;6.070;2023-05-07T07:30:00;2.38;;;1.30;;
67747;SDS011;54543;50.712;6.070;2023-05-07T07:32:25;1.35;;;1.05;;
67747;SDS011;54543;50.712;6.070;2023-05-07T07:34:51;4.07;;;2.50;;
67747;SDS011;54543;50.712;6.070;2023-05-07T07:37:16;6.75;;;4.22;;
67747;SDS011;54543;50.712;6.070;2023-05-07T07:39:42;5.63;;;3.20;;
67747;SDS011;54543;50.712;6.070;2023-05-07T07:42:08;6.18;;;3.90;;
67747;SDS011;54543;50.712;6.070;2023-05-07T07:44:33;8.15;;;4.25;;
67747;SDS011;54543;50.712;6.070;2023-05-07T07:46:59;4.90;;;2.60;;
67747;SDS011;54543;50.712;6.070;2023-05-07T07:49:25;5.03;;;3.60;;
67747;SDS011;54543;50.712;6.070;2023-05-07T07:51:51;8.23;;;5.93;;
67747;SDS011;54543;50.712;6.070;2023-05-07T07:54:17;6.15;;;3.50;;
67747;SDS011;54543;50.712;6.070;2023-05-07T07:56:42;4.22;;;2.78;;
67747;SDS011;54543;50.712;6.070;2023-05-07T07:59:08;4.72;;;2.83;;
67747;SDS011;54543;50.712;6.070;2023-05-07T08:01:34;18.55;;;10.88;;
67747;SDS011;54543;50.712;6.070;2023-05-07T08:03:59;25.65;;;12.20;;
67747;SDS011;54543;50.712;6.070;2023-05-07T08:06:25;9.48;;;6.07;;
67747;SDS011;54543;50.712;6.070;2023-05-07T08:08:51;11.30;;;6.18;;
67747;SDS011;54543;50.712;6.070;2023-05-07T08:11:17;9.20;;;5.00;;
67747;SDS011;54543;50.712;6.070;2023-05-07T08:13:43;5.18;;;3.38;;
67747;SDS011;54543;50.712;6.070;2023-05-07T08:16:08;10.32;;;5.57;;
67747;SDS011;54543;50.712;6.070;2023-05-07T08:18:34;8.93;;;5.82;;
67747;SDS011;54543;50.712;6.070;2023-05-07T08:21:00;4.85;;;3.10;;
67747;SDS011;54543;50.712;6.070;2023-05-07T08:23:26;9.85;;;5.93;;
67747;SDS011;54543;50.712;6.070;2023-05-07T08:25:52;5.15;;;3.08;;
67747;SDS011;54543;50.712;6.070;2023-05-07T08:28:18;4.55;;;2.80;;
67747;SDS011;54543;50.712;6.070;2023-05-07T08:30:44;4.15;;;2.20;;
67747;SDS011;54543;50.712;6.070;2023-05-07T08:33:10;3.78;;;2.10;;
67747;SDS011;54543;50.712;6.070;2023-05-07T08:35:36;5.68;;;3.50;;
67747;SDS011;54543;50.712;6.070;2023-05-07T08:38:01;7.47;;;5.65;;
67747;SDS011;54543;50.712;6.070;2023-05-07T08:40:27;4.97;;;3.30;;
67747;SDS011;54543;50.712;6.070;2023-05-07T08:42:54;12.25;;;8.98;;
67747;SDS011;54543;50.712;6.070;2023-05-07T08:45:22;8.93;;;4.43;;
67747;SDS011;54543;50.712;6.070;2023-05-07T08:47:50;7.10;;;2.80;;
67747;SDS011;54543;50.712;6.070;2023-05-07T08:50:18;12.20;;;7.68;;
67747;SDS011;54543;50.712;6.070;2023-05-07T08:52:45;7.55;;;4.03;;
67747;SDS011;54543;50.712;6.070;2023-05-07T08:55:11;3.90;;;3.00;;
67747;SDS011;54543;50.712;6.070;2023-05-07T08:57:37;5.80;;;3.20;;
67747;SDS011;54543;50.712;6.070;2023-05-07T09:00:04;5.22;;;2.53;;
67747;SDS011;54543;50.712;6.070;2023-05-07T09:02:31;3.45;;;2.40;;
67747;SDS011;54543;50.712;6.070;2023-05-07T09:04:57;5.25;;;3.53;;
67747;SDS011;54543;50.712;6.070;2023-05-07T09:07:23;5.30;;;2.72;;
67747;SDS011;54543;50.712;6.070;2023-05-07T09:09:50;3.13;;;2.25;;
67747;SDS011;54543;50.712;6.070;2023-05-07T09:12:17;3.63;;;2.22;;
67747;SDS011;54543;50.712;6.070;2023-05-07T09:14:44;3.30;;;2.03;;
67747;SDS011;54543;50.712;6.070;2023-05-07T09:17:11;2.20;;;1.55;;
67747;SDS011;54543;50.712;6.070;2023-05-07T09:19:36;4.60;;;2.58;;
67747;SDS011;54543;50.712;6.070;2023-05-07T09:22:03;2.70;;;1.70;;
67747;SDS011;54543;50.712;6.070;2023-05-07T09:24:30;4.35;;;2.63;;
67747;SDS011;54543;50.712;6.070;2023-05-07T09:27:00;8.13;;;1.70;;
67747;SDS011;54543;50.712;6.070;2023-05-07T09:29:26;7.35;;;5.15;;
67747;SDS011;54543;50.712;6.070;2023-05-07T09:31:54;5.25;;;3.33;;
67747;SDS011;54543;50.712;6.070;2023-05-07T09:34:20;5.15;;;3.08;;
67747;SDS011;54543;50.712;6.070;2023-05-07T09:36:46;4.30;;;3.10;;
67747;SDS011;54543;50.712;6.070;2023-05-07T09:39:12;4.15;;;2.92;;
67747;SDS011;54543;50.712;6.070;2023-05-07T09:41:45;3.70;;;2.78;;
67747;SDS011;54543;50.712;6.070;2023-05-07T09:44:12;4.40;;;2.40;;
67747;SDS011;54543;50.712;6.070;2023-05-07T09:46:38;3.72;;;2.10;;
67747;SDS011;54543;50.712;6.070;2023-05-07T09:49:07;3.78;;;2.72;;
67747;SDS011;54543;50.712;6.070;2023-05-07T09:51:43;3.47;;;2.05;;
67747;SDS011;54543;50.712;6.070;2023-05-07T09:54:13;3.35;;;2.00;;
67747;SDS011;54543;50.712;6.070;2023-05-07T09:56:39;2.67;;;1.70;;
67747;SDS011;54543;50.712;6.070;2023-05-07T09:59:09;2.63;;;1.70;;
67747;SDS011;54543;50.712;6.070;2023-05-07T10:01:37;2.63;;;1.63;;
67747;SDS011;54543;50.712;6.070;2023-05-07T10:04:05;2.88;;;1.90;;
67747;SDS011;54543;50.712;6.070;2023-05-07T10:06:34;1.98;;;1.23;;
67747;SDS011;54543;50.712;6.070;2023-05-07T10:09:01;4.93;;;1.50;;
67747;SDS011;54543;50.712;6.070;2023-05-07T10:11:27;3.00;;;1.92;;
67747;SDS011;54543;50.712;6.070;2023-05-07T10:13:53;3.10;;;1.30;;
67747;SDS011;54543;50.712;6.070;2023-05-07T10:16:20;2.33;;;1.60;;
67747;SDS011;54543;50.712;6.070;2023-05-07T10:18:46;3.15;;;1.63;;
67747;SDS011;54543;50.712;6.070;2023-05-07T10:21:18;2.70;;;1.63;;
67747;SDS011;54543;50.712;6.070;2023-05-07T10:23:45;2.65;;;1.67;;
67747;SDS011;54543;50.712;6.070;2023-05-07T10:26:15;2.30;;;1.60;;
67747;SDS011;54543;50.712;6.070;2023-05-07T10:28:44;1.50;;;1.30;;
67747;SDS011;54543;50.712;6.070;2023-05-07T10:33:41;3.78;;;2.60;;
67747;SDS011;54543;50.712;6.070;2023-05-07T10:36:10;2.58;;;1.83;;
67747;SDS011;54543;50.712;6.070;2023-05-07T10:38:36;2.30;;;1.50;;
67747;SDS011;54543;50.712;6.070;2023-05-07T10:41:03;2.85;;;1.60;;
67747;SDS011;54543;50.712;6.070;2023-05-07T10:43:39;2.72;;;1.67;;
67747;SDS011;54543;50.712;6.070;2023-05-07T10:46:10;2.58;;;1.45;;
67747;SDS011;54543;50.712;6.070;2023-05-07T10:51:28;2.20;;;1.38;;
67747;SDS011;54543;50.712;6.070;2023-05-07T10:56:36;1.50;;;1.40;;
67747;SDS011;54543;50.712;6.070;2023-05-07T11:04:17;2.75;;;1.80;;
67747;SDS011;54543;50.712;6.070;2023-05-07T11:15:09;4.53;;;1.70;;
67747;SDS011;54543;50.712;6.070;2023-05-07T11:23:12;2.72;;;1.90;;
67747;SDS011;54543;50.712;6.070;2023-05-07T11:26:00;2.70;;;1.80;;
67747;SDS011;54543;50.712;6.070;2023-05-07T11:28:28;3.08;;;2.00;;
67747;SDS011;54543;50.712;6.070;2023-05-07T11:30:55;5.38;;;3.92;;
67747;SDS011;54543;50.712;6.070;2023-05-07T11:33:22;2.88;;;1.95;;
67747;SDS011;54543;50.712;6.070;2023-05-07T11:35:50;2.17;;;1.60;;
67747;SDS011;54543;50.712;6.070;2023-05-07T11:38:18;3.15;;;1.65;;
67747;SDS011;54543;50.712;6.070;2023-05-07T11:41:02;2.17;;;1.70;;
67747;SDS011;54543;50.712;6.070;2023-05-07T11:45:58;2.22;;;1.60;;
67747;SDS011;54543;50.712;6.070;2023-05-07T11:48:34;2.35;;;1.90;;
67747;SDS011;54543;50.712;6.070;2023-05-07T11:51:01;2.28;;;1.63;;
67747;SDS011;54543;50.712;6.070;2023-05-07T11:53:33;2.10;;;1.63;;
67747;SDS011;54543;50.712;6.070;2023-05-07T11:56:05;2.83;;;1.60;;
67747;SDS011;54543;50.712;6.070;2023-05-07T11:58:34;2.25;;;1.60;;
67747;SDS011;54543;50.712;6.070;2023-05-07T12:01:01;5.60;;;1.80;;
67747;SDS011;54543;50.712;6.070;2023-05-07T12:03:26;2.80;;;1.77;;
67747;SDS011;54543;50.712;6.070;2023-05-07T12:05:53;2.63;;;1.98;;
67747;SDS011;54543;50.712;6.070;2023-05-07T12:08:19;2.33;;;1.83;;
67747;SDS011;54543;50.712;6.070;2023-05-07T12:10:47;2.95;;;2.05;;
67747;SDS011;54543;50.712;6.070;2023-05-07T12:13:17;2.38;;;1.88;;
67747;SDS011;54543;50.712;6.070;2023-05-07T12:15:45;3.70;;;2.33;;
67747;SDS011;54543;50.712;6.070;2023-05-07T12:18:11;4.75;;;2.72;;
67747;SDS011;54543;50.712;6.070;2023-05-07T12:20:37;4.70;;;3.05;;
67747;SDS011;54543;50.712;6.070;2023-05-07T12:23:03;4.40;;;2.80;;
67747;SDS011;54543;50.712;6.070;2023-05-07T12:25:35;3.60;;;2.60;;
67747;SDS011;54543;50.712;6.070;2023-05-07T12:28:02;4.85;;;2.88;;
67747;SDS011;54543;50.712;6.070;2023-05-07T12:30:30;4.55;;;3.03;;
67747;SDS011;54543;50.712;6.070;2023-05-07T12:33:05;3.35;;;2.42;;
67747;SDS011;54543;50.712;6.070;2023-05-07T12:35:31;5.07;;;3.30;;
67747;SDS011;54543;50.712;6.070;2023-05-07T12:38:01;4.45;;;3.47;;
67747;SDS011;54543;50.712;6.070;2023-05-07T12:40:36;3.90;;;2.72;;
67747;SDS011;54543;50.712;6.070;2023-05-07T12:45:30;4.38;;;2.92;;
67747;SDS011;54543;50.712;6.070;2023-05-07T12:47:56;4.85;;;2.70;;
67747;SDS011;54543;50.712;6.070;2023-05-07T12:50:26;3.28;;;2.60;;
67747;SDS011;54543;50.712;6.070;2023-05-07T12:52:55;4.35;;;2.80;;
67747;SDS011;54543;50.712;6.070;2023-05-07T12:55:21;6.75;;;3.28;;
67747;SDS011;54543;50.712;6.070;2023-05-07T12:57:49;4.10;;;3.15;;
67747;SDS011;54543;50.712;6.070;2023-05-07T13:00:17;4.13;;;3.15;;
67747;SDS011;54543;50.712;6.070;2023-05-07T13:02:48;6.03;;;3.10;;
67747;SDS011;54543;50.712;6.070;2023-05-07T13:05:15;5.07;;;3.58;;
67747;SDS011;54543;50.712;6.070;2023-05-07T13:07:40;7.25;;;3.83;;
67747;SDS011;54543;50.712;6.070;2023-05-07T13:10:17;5.88;;;3.67;;
67747;SDS011;54543;50.712;6.070;2023-05-07T13:12:42;5.63;;;3.47;;
67747;SDS011;54543;50.712;6.070;2023-05-07T13:15:08;5.38;;;3.30;;
67747;SDS011;54543;50.712;6.070;2023-05-07T13:17:34;5.57;;;3.05;;
67747;SDS011;54543;50.712;6.070;2023-05-07T13:19:59;3.88;;;2.95;;
67747;SDS011;54543;50.712;6.070;2023-05-07T13:22:25;4.70;;;2.90;;
67747;SDS011;54543;50.712;6.070;2023-05-07T13:24:51;4.35;;;2.90;;
67747;SDS011;54543;50.712;6.070;2023-05-07T13:27:16;6.00;;;3.45;;
67747;SDS011;54543;50.712;6.070;2023-05-07T13:29:44;5.30;;;3.08;;
67747;SDS011;54543;50.712;6.070;2023-05-07T13:32:09;6.53;;;3.22;;
67747;SDS011;54543;50.712;6.070;2023-05-07T13:34:35;4.90;;;3.20;;
67747;SDS011;54543;50.712;6.070;2023-05-07T13:37:02;7.85;;;3.63;;
67747;SDS011;54543;50.712;6.070;2023-05-07T13:39:27;6.53;;;3.80;;
67747;SDS011;54543;50.712;6.070;2023-05-07T13:41:53;5.07;;;2.67;;
67747;SDS011;54543;50.712;6.070;2023-05-07T13:44:19;5.35;;;2.85;;
67747;SDS011;54543;50.712;6.070;2023-05-07T13:46:45;6.40;;;3.17;;
67747;SDS011;54543;50.712;6.070;2023-05-07T13:49:12;4.78;;;3.22;;
67747;SDS011;54543;50.712;6.070;2023-05-07T13:51:38;6.05;;;3.17;;
67747;SDS011;54543;50.712;6.070;2023-05-07T13:54:03;5.78;;;3.50;;
67747;SDS011;54543;50.712;6.070;2023-05-07T13:56:30;5.38;;;3.88;;
67747;SDS011;54543;50.712;6.070;2023-05-07T13:59:03;4.72;;;3.30;;
67747;SDS011;54543;50.712;6.070;2023-05-07T14:01:30;4.43;;;3.25;;
67747;SDS011;54543;50.712;6.070;2023-05-07T14:03:56;5.68;;;4.15;;
67747;SDS011;54543;50.712;6.070;2023-05-07T14:06:25;5.13;;;3.60;;
67747;SDS011;54543;50.712;6.070;2023-05-07T14:08:50;4.50;;;3.50;;
67747;SDS011;54543;50.712;6.070;2023-05-07T14:11:18;4.82;;;3.70;;
67747;SDS011;54543;50.712;6.070;2023-05-07T14:13:44;5.00;;;3.92;;
67747;SDS011;54543;50.712;6.070;2023-05-07T14:16:10;4.57;;;2.75;;
67747;SDS011;54543;50.712;6.070;2023-05-07T14:18:36;4.97;;;3.25;;
67747;SDS011;54543;50.712;6.070;2023-05-07T14:21:04;4.25;;;3.00;;
67747;SDS011;54543;50.712;6.070;2023-05-07T14:23:39;4.43;;;3.08;;
67747;SDS011;54543;50.712;6.070;2023-05-07T14:26:06;5.88;;;2.85;;
67747;SDS011;54543;50.712;6.070;2023-05-07T14:28:31;4.20;;;2.83;;
67747;SDS011;54543;50.712;6.070;2023-05-07T14:30:59;4.00;;;2.85;;
67747;SDS011;54543;50.712;6.070;2023-05-07T14:33:26;3.85;;;2.25;;
67747;SDS011;54543;50.712;6.070;2023-05-07T14:35:52;3.53;;;2.05;;
67747;SDS011;54543;50.712;6.070;2023-05-07T14:38:19;3.97;;;2.70;;
67747;SDS011;54543;50.712;6.070;2023-05-07T14:40:50;4.70;;;2.60;;
67747;SDS011;54543;50.712;6.070;2023-05-07T14:43:23;3.30;;;2.20;;
67747;SDS011;54543;50.712;6.070;2023-05-07T14:45:49;3.50;;;2.20;;
67747;SDS011;54543;50.712;6.070;2023-05-07T14:48:15;3.10;;;1.88;;
67747;SDS011;54543;50.712;6.070;2023-05-07T14:50:43;3.22;;;2.17;;
67747;SDS011;54543;50.712;6.070;2023-05-07T14:53:20;3.53;;;1.90;;
67747;SDS011;54543;50.712;6.070;2023-05-07T14:55:48;3.85;;;2.08;;
67747;SDS011;54543;50.712;6.070;2023-05-07T14:58:14;2.63;;;1.83;;
67747;SDS011;54543;50.712;6.070;2023-05-07T15:00:40;3.38;;;1.90;;
67747;SDS011;54543;50.712;6.070;2023-05-07T15:05:38;2.70;;;1.60;;
67747;SDS011;54543;50.712;6.070;2023-05-07T15:08:03;2.20;;;1.52;;
67747;SDS011;54543;50.712;6.070;2023-05-07T15:10:30;4.00;;;2.65;;
67747;SDS011;54543;50.712;6.070;2023-05-07T15:12:56;2.83;;;1.75;;
67747;SDS011;54543;50.712;6.070;2023-05-07T15:15:23;3.00;;;1.80;;
67747;SDS011;54543;50.712;6.070;2023-05-07T15:17:50;2.00;;;1.60;;
67747;SDS011;54543;50.712;6.070;2023-05-07T15:20:15;2.63;;;1.90;;